createdAt,value
2023-04-23T00:00:03.020Z,48.35
2023-04-23T00:01:03.050Z,48.54
2023-04-23T00:02:03.089Z,48.93
2023-04-23T00:03:03.138Z,49.02
2023-04-23T00:04:03.263Z,48.74
2023-04-23T00:05:03.252Z,48.74
2023-04-23T00:06:03.215Z,49.21
2023-04-23T00:07:03.286Z,49.31
2023-04-23T00:08:03.286Z,49.02
2023-04-23T00:09:03.319Z,49.12
2023-04-23T00:10:03.355Z,49.31
2023-04-23T00:11:03.379Z,49.38
2023-04-23T00:12:03.414Z,49.48
2023-04-23T00:13:03.478Z,49.67
2023-04-23T00:14:03.486Z,49.48
2023-04-23T00:15:03.541Z,50.24
2023-04-23T00:16:03.599Z,49.96
2023-04-23T00:17:03.596Z,49.88
2023-04-23T00:18:03.628Z,49.76
2023-04-23T00:19:03.667Z,49.76
2023-04-23T00:20:03.687Z,49.76
2023-04-23T00:21:03.755Z,49.76
2023-04-23T00:22:03.765Z,49.86
2023-04-23T00:23:03.796Z,50.15
2023-04-23T00:24:03.841Z,50.24
2023-04-23T00:25:03.867Z,50.24
2023-04-23T00:26:03.880Z,50.43
2023-04-23T00:27:03.942Z,50.53
2023-04-23T00:28:03.960Z,50.73
2023-04-23T00:29:03.999Z,50.63
2023-04-23T00:30:04.038Z,50.43
2023-04-23T00:31:04.087Z,50.63
2023-04-23T00:32:04.158Z,50.73
2023-04-23T00:33:04.141Z,51.01
2023-04-23T00:34:04.185Z,50.73
2023-04-23T00:35:04.237Z,50.82
2023-04-23T00:36:04.254Z,50.73
2023-04-23T00:37:04.276Z,50.73
2023-04-23T00:38:04.311Z,50.63
2023-04-23T00:39:04.348Z,50.63
2023-04-23T00:40:04.377Z,51.01
2023-04-23T00:41:04.422Z,50.82
2023-04-23T00:42:04.436Z,50.73
2023-04-23T00:43:04.472Z,50.73
2023-04-23T00:44:04.508Z,50.73
2023-04-23T00:45:04.541Z,51.30
2023-04-23T00:46:04.614Z,51.01
2023-04-23T00:47:04.615Z,51.01
2023-04-23T00:48:04.658Z,51.01
2023-04-23T00:49:04.691Z,51.30
2023-04-23T00:50:04.717Z,51.01
2023-04-23T00:51:04.771Z,51.10
2023-04-23T00:52:04.821Z,51.40
2023-04-23T00:53:04.821Z,51.78
2023-04-23T00:54:04.866Z,51.87
2023-04-23T00:55:04.894Z,52.07
2023-04-23T00:56:04.928Z,52.07
2023-04-23T00:57:04.960Z,52.07
2023-04-23T00:58:04.985Z,51.78
2023-04-23T00:59:05.030Z,51.97
2023-04-23T01:00:05.059Z,51.78
2023-04-23T01:01:05.170Z,51.87
2023-04-23T01:02:05.231Z,51.68
2023-04-23T01:03:05.325Z,51.87
2023-04-23T01:04:05.482Z,52.26
2023-04-23T01:05:05.231Z,52.36
2023-04-23T01:06:05.274Z,52.16
2023-04-23T01:07:05.302Z,52.07
2023-04-23T01:08:05.336Z,52.36
2023-04-23T01:09:05.371Z,52.36
2023-04-23T01:10:05.418Z,52.36
2023-04-23T01:11:05.442Z,52.26
2023-04-23T01:12:05.478Z,52.45
2023-04-23T01:13:05.494Z,52.36
2023-04-23T01:14:05.538Z,52.64
2023-04-23T01:15:05.584Z,52.64
2023-04-23T01:16:05.608Z,52.55
2023-04-23T01:17:05.724Z,52.83
2023-04-23T01:18:05.671Z,52.71
2023-04-23T01:19:05.716Z,53.19
2023-04-23T01:20:05.754Z,52.71
2023-04-23T01:21:05.802Z,53.28
2023-04-23T01:22:05.816Z,52.71
2023-04-23T01:23:05.899Z,52.91
2023-04-23T01:24:05.884Z,52.93
2023-04-23T01:25:05.952Z,53.09
2023-04-23T01:26:05.960Z,52.93
2023-04-23T01:27:05.998Z,52.91
2023-04-23T01:28:06.070Z,53.22
2023-04-23T01:29:06.074Z,53.48
2023-04-23T01:30:06.128Z,53.48
2023-04-23T01:31:06.143Z,53.09
2023-04-23T01:32:06.153Z,53.48
2023-04-23T01:33:06.200Z,53.28
2023-04-23T01:34:06.226Z,53.96
2023-04-23T01:35:06.276Z,53.96
2023-04-23T01:36:06.276Z,53.99
2023-04-23T01:37:06.325Z,53.67
2023-04-23T01:38:06.358Z,53.48
2023-04-23T01:39:06.402Z,54.05
2023-04-23T01:40:09.323Z,53.96
2023-04-23T01:41:06.463Z,53.77
2023-04-23T01:42:06.501Z,53.67
2023-04-23T01:43:06.537Z,53.96
2023-04-23T01:44:06.566Z,54.53
2023-04-23T01:45:06.620Z,54.15
2023-04-23T01:46:06.654Z,54.34
2023-04-23T01:47:07.226Z,55.01
2023-04-23T01:48:06.716Z,55.68
2023-04-23T01:49:06.736Z,55.58
2023-04-23T01:50:06.761Z,56.45
2023-04-23T01:51:06.793Z,56.26
2023-04-23T01:52:06.847Z,56.83
2023-04-23T01:53:06.869Z,56.83
2023-04-23T01:54:06.909Z,57.60
2023-04-23T01:55:06.939Z,57.98
2023-04-23T01:56:06.973Z,58.65
2023-04-23T01:57:06.997Z,58.84
2023-04-23T01:58:07.043Z,59.61
2023-04-23T01:59:07.079Z,59.42
2023-04-23T02:00:07.112Z,60.19
2023-04-23T02:01:07.148Z,60.57
2023-04-23T02:02:07.291Z,62.49
2023-04-23T02:03:07.379Z,62.20
2023-04-23T02:04:07.280Z,62.68
2023-04-23T02:05:07.281Z,63.16
2023-04-23T02:06:07.304Z,63.45
2023-04-23T02:07:07.341Z,62.68
2023-04-23T02:08:07.391Z,63.06
2023-04-23T02:09:07.403Z,64.18
2023-04-23T02:10:07.445Z,65.33
2023-04-23T02:11:07.481Z,65.84
2023-04-23T02:12:07.504Z,66.32
2023-04-23T02:13:07.550Z,66.96
2023-04-23T02:14:07.576Z,67.63
2023-04-23T02:15:07.628Z,68.59
2023-04-23T02:16:07.736Z,70.12
2023-04-23T02:17:07.670Z,71.27
2023-04-23T02:18:07.716Z,71.56
2023-04-23T02:19:07.754Z,71.66
2023-04-23T02:20:07.787Z,72.42
2023-04-23T02:21:07.846Z,72.80
2023-04-23T02:22:07.846Z,73.19
2023-04-23T02:23:07.890Z,74.11
2023-04-23T02:24:07.919Z,74.87
2023-04-23T02:25:07.953Z,74.87
2023-04-23T02:26:07.996Z,75.07
2023-04-23T02:27:08.060Z,75.93
2023-04-23T02:28:08.049Z,75.93
2023-04-23T02:29:08.085Z,75.64
2023-04-23T02:30:08.113Z,76.21
2023-04-23T02:31:08.198Z,76.40
2023-04-23T02:32:08.175Z,76.79
2023-04-23T02:33:08.221Z,76.79
2023-04-23T02:34:08.267Z,76.69
2023-04-23T02:35:08.289Z,76.69
2023-04-23T02:36:08.327Z,76.79
2023-04-23T02:37:08.360Z,77.65
2023-04-23T02:38:08.388Z,77.46
2023-04-23T02:39:08.548Z,77.17
2023-04-23T02:40:08.468Z,77.08
2023-04-23T02:41:08.508Z,77.08
2023-04-23T02:42:08.547Z,78.22
2023-04-23T02:43:08.578Z,78.80
2023-04-23T02:44:08.595Z,78.61
2023-04-23T02:45:08.613Z,79.08
2023-04-23T02:46:08.837Z,79.08
2023-04-23T02:47:08.689Z,78.70
2023-04-23T02:48:08.718Z,79.47
2023-04-23T02:49:08.763Z,78.42
2023-04-23T02:50:08.796Z,78.99
2023-04-23T02:51:08.823Z,78.99
2023-04-23T02:52:08.856Z,78.99
2023-04-23T02:53:08.913Z,78.89
2023-04-23T02:54:08.920Z,78.61
2023-04-23T02:55:08.946Z,78.80
2023-04-23T02:56:08.989Z,78.99
2023-04-23T02:57:09.031Z,79.37
2023-04-23T02:58:09.113Z,79.37
2023-04-23T02:59:09.097Z,78.99
2023-04-23T03:00:09.122Z,79.47
2023-04-23T03:01:09.240Z,80.14
2023-04-23T03:02:09.268Z,79.85
2023-04-23T03:03:11.109Z,79.75
2023-04-23T03:04:09.340Z,79.95
2023-04-23T03:05:09.302Z,80.43
2023-04-23T03:06:09.336Z,80.04
2023-04-23T03:07:09.359Z,80.52
2023-04-23T03:08:09.392Z,79.85
2023-04-23T03:09:09.423Z,80.62
2023-04-23T03:10:09.459Z,79.95
2023-04-23T03:11:09.495Z,80.43
2023-04-23T03:12:09.522Z,80.04
2023-04-23T03:13:09.556Z,80.33
2023-04-23T03:14:09.592Z,81.00
2023-04-23T03:15:09.609Z,80.52
2023-04-23T03:16:09.651Z,80.81
2023-04-23T03:17:09.698Z,80.90
2023-04-23T03:18:09.721Z,80.94
2023-04-23T03:19:09.758Z,81.48
2023-04-23T03:20:09.795Z,81.48
2023-04-23T03:21:09.807Z,81.48
2023-04-23T03:22:09.931Z,81.62
2023-04-23T03:23:09.889Z,81.43
2023-04-23T03:24:09.925Z,81.52
2023-04-23T03:25:09.954Z,81.90
2023-04-23T03:26:09.996Z,81.81
2023-04-23T03:27:10.030Z,81.33
2023-04-23T03:28:10.067Z,81.52
2023-04-23T03:29:10.080Z,81.33
2023-04-23T03:30:10.119Z,81.23
2023-04-23T03:31:10.280Z,80.56
2023-04-23T03:32:10.195Z,80.94
2023-04-23T03:33:10.237Z,80.47
2023-04-23T03:34:10.261Z,80.76
2023-04-23T03:35:10.294Z,81.13
2023-04-23T03:36:10.354Z,81.23
2023-04-23T03:37:10.359Z,81.13
2023-04-23T03:38:10.396Z,81.04
2023-04-23T03:39:10.436Z,81.04
2023-04-23T03:40:10.470Z,80.94
2023-04-23T03:41:10.504Z,81.04
2023-04-23T03:42:10.526Z,81.43
2023-04-23T03:43:10.565Z,81.52
2023-04-23T03:44:10.608Z,80.56
2023-04-23T03:45:10.618Z,80.37
2023-04-23T03:46:10.671Z,80.47
2023-04-23T03:47:10.685Z,80.56
2023-04-23T03:48:10.727Z,80.47
2023-04-23T03:49:10.764Z,79.80
2023-04-23T03:50:10.792Z,80.47
2023-04-23T03:51:10.835Z,79.60
2023-04-23T03:52:10.874Z,80.27
2023-04-23T03:53:10.895Z,80.47
2023-04-23T03:54:10.934Z,79.89
2023-04-23T03:55:10.966Z,80.27
2023-04-23T03:56:10.995Z,79.80
2023-04-23T03:57:11.038Z,79.80
2023-04-23T03:58:11.072Z,80.18
2023-04-23T03:59:11.135Z,80.27
2023-04-23T04:00:11.129Z,79.89
2023-04-23T04:01:11.157Z,80.08
2023-04-23T04:02:11.272Z,79.80
2023-04-23T04:03:11.352Z,79.99
2023-04-23T04:04:11.523Z,80.18
2023-04-23T04:05:11.786Z,80.37
2023-04-23T04:06:11.330Z,79.99
2023-04-23T04:07:11.377Z,80.66
2023-04-23T04:08:11.403Z,79.60
2023-04-23T04:09:11.438Z,80.08
2023-04-23T04:10:11.468Z,80.18
2023-04-23T04:11:11.509Z,80.47
2023-04-23T04:12:11.534Z,79.80
2023-04-23T04:13:11.581Z,79.99
2023-04-23T04:14:11.611Z,80.56
2023-04-23T04:15:11.648Z,80.76
2023-04-23T04:16:11.701Z,80.76
2023-04-23T04:17:11.712Z,81.13
2023-04-23T04:18:11.736Z,80.94
2023-04-23T04:19:11.774Z,80.94
2023-04-23T04:20:11.847Z,81.43
2023-04-23T04:21:11.837Z,81.71
2023-04-23T04:22:11.872Z,81.33
2023-04-23T04:23:11.909Z,81.23
2023-04-23T04:24:11.956Z,81.52
2023-04-23T04:25:11.975Z,81.52
2023-04-23T04:26:12.002Z,82.19
2023-04-23T04:27:12.045Z,82.29
2023-04-23T04:28:12.078Z,82.96
2023-04-23T04:29:12.114Z,82.57
2023-04-23T04:30:12.122Z,83.25
2023-04-23T04:31:12.205Z,83.44
2023-04-23T04:32:12.197Z,83.15
2023-04-23T04:33:12.263Z,83.34
2023-04-23T04:34:12.273Z,83.63
2023-04-23T04:35:12.314Z,83.82
2023-04-23T04:36:12.338Z,83.63
2023-04-23T04:37:12.372Z,83.53
2023-04-23T04:38:12.406Z,83.34
2023-04-23T04:39:12.438Z,83.44
2023-04-23T04:40:12.470Z,83.82
2023-04-23T04:41:12.516Z,83.72
2023-04-23T04:42:12.537Z,84.01
2023-04-23T04:43:12.574Z,83.53
2023-04-23T04:44:12.591Z,83.92
2023-04-23T04:45:12.647Z,83.63
2023-04-23T04:46:12.683Z,83.63
2023-04-23T04:47:12.707Z,83.82
2023-04-23T04:48:12.744Z,83.63
2023-04-23T04:49:12.846Z,83.72
2023-04-23T04:50:12.832Z,83.82
2023-04-23T04:51:12.836Z,83.92
2023-04-23T04:52:12.869Z,84.30
2023-04-23T04:53:12.900Z,83.92
2023-04-23T04:54:12.941Z,84.11
2023-04-23T04:55:12.989Z,84.11
2023-04-23T04:56:13.004Z,84.01
2023-04-23T04:57:13.047Z,84.58
2023-04-23T04:58:13.103Z,84.39
2023-04-23T04:59:13.111Z,84.58
2023-04-23T05:00:13.125Z,84.49
2023-04-23T05:01:13.209Z,85.25
2023-04-23T05:02:13.274Z,85.74
2023-04-23T05:03:14.311Z,85.93
2023-04-23T05:04:13.359Z,86.27
2023-04-23T05:05:13.309Z,86.02
2023-04-23T05:06:13.359Z,85.83
2023-04-23T05:07:13.376Z,86.12
2023-04-23T05:08:13.408Z,86.08
2023-04-23T05:09:13.477Z,86.41
2023-04-23T05:10:13.481Z,86.50
2023-04-23T05:11:13.514Z,86.79
2023-04-23T05:12:13.568Z,86.41
2023-04-23T05:13:13.565Z,86.98
2023-04-23T05:14:13.612Z,87.17
2023-04-23T05:15:13.633Z,87.46
2023-04-23T05:16:13.692Z,87.17
2023-04-23T05:17:13.709Z,86.69
2023-04-23T05:18:13.749Z,86.41
2023-04-23T05:19:13.777Z,86.69
2023-04-23T05:20:13.890Z,87.08
2023-04-23T05:21:13.846Z,86.79
2023-04-23T05:22:13.883Z,86.88
2023-04-23T05:23:13.935Z,86.98
2023-04-23T05:24:13.956Z,87.37
2023-04-23T05:25:13.989Z,87.37
2023-04-23T05:26:14.013Z,87.37
2023-04-23T05:27:14.053Z,86.88
2023-04-23T05:28:14.084Z,87.08
2023-04-23T05:29:14.116Z,86.98
2023-04-23T05:30:14.161Z,86.98
2023-04-23T05:31:14.203Z,86.98
2023-04-23T05:32:14.244Z,86.98
2023-04-23T05:33:14.247Z,86.50
2023-04-23T05:34:14.278Z,86.98
2023-04-23T05:35:14.319Z,86.79
2023-04-23T05:36:14.353Z,87.17
2023-04-23T05:37:14.378Z,87.08
2023-04-23T05:38:14.411Z,87.27
2023-04-23T05:39:14.448Z,86.98
2023-04-23T05:40:14.467Z,86.69
2023-04-23T05:41:14.516Z,86.98
2023-04-23T05:42:14.549Z,86.60
2023-04-23T05:43:14.777Z,86.60
2023-04-23T05:44:14.616Z,86.79
2023-04-23T05:45:14.647Z,86.41
2023-04-23T05:46:14.715Z,86.50
2023-04-23T05:47:14.735Z,86.12
2023-04-23T05:48:14.745Z,86.31
2023-04-23T05:49:14.775Z,86.50
2023-04-23T05:50:14.808Z,87.27
2023-04-23T05:51:14.832Z,87.17
2023-04-23T05:52:14.894Z,87.27
2023-04-23T05:53:14.922Z,87.74
2023-04-23T05:54:14.944Z,88.13
2023-04-23T05:55:14.980Z,88.03
2023-04-23T05:56:15.030Z,87.65
2023-04-23T05:57:15.044Z,87.55
2023-04-23T05:58:15.088Z,88.03
2023-04-23T05:59:15.110Z,87.74
2023-04-23T06:00:15.165Z,87.84
2023-04-23T06:01:15.362Z,87.74
2023-04-23T06:02:15.224Z,87.94
2023-04-23T06:03:15.477Z,87.65
2023-04-23T06:04:15.575Z,87.65
2023-04-23T06:05:15.542Z,88.32
2023-04-23T06:06:15.351Z,88.13
2023-04-23T06:07:15.412Z,88.32
2023-04-23T06:08:15.407Z,88.61
2023-04-23T06:09:15.445Z,88.80
2023-04-23T06:10:15.473Z,88.61
2023-04-23T06:11:15.539Z,88.99
2023-04-23T06:12:15.543Z,88.23
2023-04-23T06:13:15.581Z,89.28
2023-04-23T06:14:15.609Z,89.18
2023-04-23T06:15:15.650Z,88.99
2023-04-23T06:16:15.722Z,88.51
2023-04-23T06:17:15.718Z,89.09
2023-04-23T06:18:15.770Z,89.47
2023-04-23T06:19:15.783Z,89.37
2023-04-23T06:20:15.803Z,88.70
2023-04-23T06:21:16.104Z,89.09
2023-04-23T06:22:15.878Z,88.99
2023-04-23T06:23:15.927Z,88.99
2023-04-23T06:24:15.954Z,88.99
2023-04-23T06:25:15.996Z,89.47
2023-04-23T06:26:16.011Z,89.66
2023-04-23T06:27:16.046Z,89.86
2023-04-23T06:28:16.182Z,90.14
2023-04-23T06:29:16.116Z,90.14
2023-04-23T06:30:16.155Z,90.14
2023-04-23T06:31:16.243Z,89.66
2023-04-23T06:32:18.370Z,89.86
2023-04-23T06:33:16.247Z,89.66
2023-04-23T06:34:16.268Z,89.76
2023-04-23T06:35:16.310Z,89.76
2023-04-23T06:36:16.334Z,89.76
2023-04-23T06:37:16.382Z,89.66
2023-04-23T06:38:16.432Z,89.66
2023-04-23T06:39:16.461Z,89.76
2023-04-23T06:40:16.479Z,89.76
2023-04-23T06:41:16.515Z,90.23
2023-04-23T06:42:16.568Z,90.14
2023-04-23T06:43:16.588Z,90.53
2023-04-23T06:44:16.616Z,90.05
2023-04-23T06:45:16.650Z,90.43
2023-04-23T06:46:16.681Z,91.19
2023-04-23T06:47:16.719Z,90.53
2023-04-23T06:48:16.797Z,90.72
2023-04-23T06:49:16.785Z,90.33
2023-04-23T06:50:16.823Z,90.43
2023-04-23T06:51:16.856Z,90.09
2023-04-23T06:52:16.889Z,90.09
2023-04-23T06:53:16.914Z,90.19
2023-04-23T06:54:16.946Z,90.09
2023-04-23T06:55:16.977Z,89.61
2023-04-23T06:56:17.029Z,89.32
2023-04-23T06:57:17.063Z,89.32
2023-04-23T06:58:17.085Z,89.42
2023-04-23T06:59:17.128Z,90.33
2023-04-23T07:00:17.155Z,90.76
2023-04-23T07:01:17.279Z,90.91
2023-04-23T07:02:17.288Z,90.86
2023-04-23T07:03:17.287Z,90.57
2023-04-23T07:04:17.385Z,90.57
2023-04-23T07:05:17.328Z,91.34
2023-04-23T07:06:17.360Z,91.29
2023-04-23T07:07:17.393Z,91.86
2023-04-23T07:08:17.427Z,91.96
2023-04-23T07:09:17.464Z,92.73
2023-04-23T07:10:18.106Z,93.78
2023-04-23T07:11:17.537Z,94.64
2023-04-23T07:12:17.564Z,95.03
2023-04-23T07:13:17.593Z,95.22
2023-04-23T07:14:17.629Z,95.65
2023-04-23T07:15:17.692Z,95.79
2023-04-23T07:16:19.169Z,96.42
2023-04-23T07:17:17.736Z,96.61
2023-04-23T07:18:17.774Z,97.38
2023-04-23T07:19:17.806Z,97.85
2023-04-23T07:20:17.844Z,99.10
2023-04-23T07:21:17.873Z,99.58
2023-04-23T07:22:17.953Z,99.96
2023-04-23T07:23:17.949Z,99.77
2023-04-23T07:24:17.978Z,99.48
2023-04-23T07:25:18.012Z,99.29
2023-04-23T07:26:18.057Z,99.48
2023-04-23T07:27:18.083Z,98.71
2023-04-23T07:28:18.110Z,98.81
2023-04-23T07:29:18.145Z,98.62
2023-04-23T07:30:18.174Z,98.81
2023-04-23T07:31:18.225Z,99.00
2023-04-23T07:32:18.294Z,99.96
2023-04-23T07:33:18.285Z,99.99
2023-04-23T07:34:18.321Z,99.87
2023-04-23T07:35:18.363Z,99.99
2023-04-23T07:36:18.443Z,99.99
2023-04-23T07:37:18.426Z,99.99
2023-04-23T07:38:18.473Z,99.99
2023-04-23T07:39:18.486Z,99.99
2023-04-23T07:40:18.526Z,99.99
2023-04-23T07:41:18.553Z,99.99
2023-04-23T07:42:18.585Z,99.99
2023-04-23T07:43:18.623Z,99.99
2023-04-23T07:44:18.648Z,99.99
2023-04-23T07:45:18.678Z,99.99
2023-04-23T07:46:18.752Z,99.99
2023-04-23T07:47:18.756Z,99.99
2023-04-23T07:48:18.785Z,99.99
2023-04-23T07:49:18.811Z,99.99
2023-04-23T07:50:18.846Z,99.99
2023-04-23T07:51:18.900Z,99.99
2023-04-23T07:52:18.909Z,99.99
2023-04-23T07:53:18.985Z,99.99
2023-04-23T07:54:18.978Z,99.99
2023-04-23T07:55:19.008Z,99.99
2023-04-23T07:56:19.040Z,99.99
2023-04-23T07:57:19.065Z,99.99
2023-04-23T07:58:19.107Z,99.99
2023-04-23T07:59:19.154Z,99.99
2023-04-23T08:00:19.173Z,99.99
2023-04-23T08:01:19.219Z,99.99
2023-04-23T08:02:19.309Z,99.99
2023-04-23T08:03:19.544Z,99.99
2023-04-23T08:04:19.665Z,99.99
2023-04-23T08:05:19.366Z,99.99
2023-04-23T08:06:19.398Z,99.99
2023-04-23T08:07:19.421Z,99.99
2023-04-23T08:08:19.485Z,99.99
2023-04-23T08:09:19.484Z,99.99
2023-04-23T08:10:19.512Z,99.99
2023-04-23T08:11:19.547Z,99.99
2023-04-23T08:12:19.575Z,99.99
2023-04-23T08:13:19.609Z,99.99
2023-04-23T08:14:19.656Z,99.99
2023-04-23T08:15:19.685Z,99.99
2023-04-23T08:16:19.869Z,99.99
2023-04-23T08:17:19.749Z,99.99
2023-04-23T08:18:19.792Z,99.99
2023-04-23T08:19:19.811Z,99.99
2023-04-23T08:20:19.853Z,99.99
2023-04-23T08:21:19.886Z,99.99
2023-04-23T08:22:20.942Z,99.99
2023-04-23T08:23:19.954Z,99.99
2023-04-23T08:24:19.977Z,99.99
2023-04-23T08:25:20.033Z,99.99
2023-04-23T08:26:20.040Z,99.99
2023-04-23T08:27:20.096Z,99.99
2023-04-23T08:28:20.126Z,99.99
2023-04-23T08:29:20.148Z,99.99
2023-04-23T08:30:20.176Z,99.99
2023-04-23T08:31:26.582Z,99.99
2023-04-23T08:32:20.360Z,99.99
2023-04-23T08:33:20.277Z,99.99
2023-04-23T08:34:20.299Z,99.99
2023-04-23T08:35:20.351Z,99.99
2023-04-23T08:36:20.374Z,99.99
2023-04-23T08:37:30.432Z,99.99
2023-04-23T08:38:20.457Z,99.43
2023-04-23T08:39:20.496Z,97.90
2023-04-23T08:40:20.537Z,97.90
2023-04-23T08:41:20.546Z,98.47
2023-04-23T08:42:20.584Z,99.05
2023-04-23T08:43:20.642Z,99.99
2023-04-23T08:44:20.656Z,99.99
2023-04-23T08:45:20.720Z,99.99
2023-04-23T08:46:20.726Z,99.99
2023-04-23T08:47:20.732Z,99.99
2023-04-23T08:48:20.788Z,99.99
2023-04-23T08:49:20.817Z,99.43
2023-04-23T08:50:20.865Z,99.53
2023-04-23T08:51:20.880Z,99.63
2023-04-23T08:52:20.902Z,99.67
2023-04-23T08:53:20.944Z,99.99
2023-04-23T08:54:21.079Z,99.99
2023-04-23T08:55:21.098Z,99.99
2023-04-23T08:56:21.155Z,99.99
2023-04-23T08:57:21.233Z,99.99
2023-04-23T08:58:21.194Z,99.99
2023-04-23T08:59:21.250Z,99.99
2023-04-23T09:00:21.602Z,99.99
2023-04-23T09:01:21.332Z,99.99
2023-04-23T09:02:21.390Z,99.99
2023-04-23T09:03:21.411Z,99.99
2023-04-23T09:04:21.310Z,99.99
2023-04-23T09:05:21.344Z,99.99
2023-04-23T09:06:21.382Z,99.99
2023-04-23T09:07:21.414Z,99.99
2023-04-23T09:08:21.565Z,99.99
2023-04-23T09:09:21.479Z,99.99
2023-04-23T09:10:21.509Z,99.99
2023-04-23T09:11:21.558Z,99.99
2023-04-23T09:12:21.589Z,99.99
2023-04-23T09:13:21.600Z,99.99
2023-04-23T09:14:21.650Z,99.99
2023-04-23T09:15:21.724Z,99.99
2023-04-23T09:16:21.744Z,99.99
2023-04-23T09:17:21.752Z,99.99
2023-04-23T09:18:21.784Z,99.99
2023-04-23T09:19:21.812Z,99.99
2023-04-23T09:20:21.855Z,99.99
2023-04-23T09:21:21.881Z,99.99
2023-04-23T09:22:21.908Z,99.99
2023-04-23T09:23:21.951Z,99.99
2023-04-23T09:24:21.981Z,99.99
2023-04-23T09:25:22.016Z,99.99
2023-04-23T09:26:22.057Z,99.99
2023-04-23T09:27:22.086Z,99.99
2023-04-23T09:28:22.109Z,99.99
2023-04-23T09:29:22.156Z,99.99
2023-04-23T09:30:22.236Z,99.99
2023-04-23T09:31:22.220Z,99.99
2023-04-23T09:32:22.348Z,99.99
2023-04-23T09:33:22.285Z,99.99
2023-04-23T09:34:22.324Z,99.99
2023-04-23T09:35:22.427Z,99.99
2023-04-23T09:36:22.382Z,99.99
2023-04-23T09:37:22.410Z,99.99
2023-04-23T09:38:22.462Z,99.99
2023-04-23T09:39:22.505Z,99.99
2023-04-23T09:40:22.520Z,99.99
2023-04-23T09:41:22.548Z,99.99
2023-04-23T09:42:22.583Z,99.99
2023-04-23T09:43:22.610Z,98.91
2023-04-23T09:44:22.847Z,98.91
2023-04-23T09:45:22.703Z,99.00
2023-04-23T09:46:22.777Z,99.19
2023-04-23T09:47:25.106Z,99.38
2023-04-23T09:48:22.799Z,99.29
2023-04-23T09:49:22.812Z,98.81
2023-04-23T09:50:22.844Z,99.29
2023-04-23T09:51:22.880Z,98.62
2023-04-23T09:52:22.909Z,99.15
2023-04-23T09:53:22.941Z,98.86
2023-04-23T09:54:22.977Z,99.24
2023-04-23T09:55:23.024Z,99.10
2023-04-23T09:56:23.046Z,99.00
2023-04-23T09:57:23.069Z,99.24
2023-04-23T09:58:23.108Z,98.52
2023-04-23T09:59:32.145Z,98.33
2023-04-23T10:00:23.316Z,97.75
2023-04-23T10:01:23.219Z,98.14
2023-04-23T10:02:23.383Z,98.24
2023-04-23T10:03:23.426Z,98.19
2023-04-23T10:04:23.530Z,98.81
2023-04-23T10:05:24.757Z,98.81
2023-04-23T10:06:40.833Z,98.52
2023-04-23T10:07:23.403Z,98.71
2023-04-23T10:08:23.441Z,98.62
2023-04-23T10:09:23.464Z,98.05
2023-04-23T10:10:23.503Z,98.24
2023-04-23T10:11:23.538Z,98.33
2023-04-23T10:13:23.612Z,98.43
2023-04-23T10:14:23.639Z,98.14
2023-04-23T10:15:23.687Z,97.47
2023-04-23T10:16:26.858Z,97.75
2023-04-23T10:17:23.778Z,98.05
2023-04-23T10:18:23.775Z,97.95
2023-04-23T10:19:23.824Z,98.14
2023-04-23T10:20:23.878Z,97.18
2023-04-23T10:21:23.868Z,97.33
2023-04-23T10:22:23.913Z,96.99
2023-04-23T10:23:23.927Z,97.09
2023-04-23T10:24:23.956Z,96.66
2023-04-23T10:25:23.997Z,97.38
2023-04-23T10:26:24.042Z,97.47
2023-04-23T10:27:33.484Z,96.51
2023-04-23T10:28:24.114Z,95.94
2023-04-23T10:29:24.135Z,95.65
2023-04-23T10:30:24.179Z,95.46
2023-04-23T10:31:24.247Z,94.98
2023-04-23T10:32:24.273Z,94.50
2023-04-23T10:34:24.341Z,94.50
2023-04-23T10:35:24.343Z,94.02
2023-04-23T10:36:24.380Z,94.12
2023-04-23T10:37:24.397Z,93.45
2023-04-23T10:38:24.490Z,92.49
2023-04-23T10:39:44.416Z,92.40
2023-04-23T10:40:24.517Z,92.68
2023-04-23T10:41:24.539Z,91.63
2023-04-23T10:42:24.584Z,90.58
2023-04-23T10:43:24.614Z,90.77
2023-04-23T10:44:44.950Z,91.05
2023-04-23T10:45:25.881Z,90.00
2023-04-23T10:46:24.733Z,89.81
2023-04-23T10:47:24.801Z,88.85
2023-04-23T10:48:24.792Z,89.33
2023-04-23T10:49:24.794Z,88.61
2023-04-23T10:50:24.863Z,89.43
2023-04-23T10:52:10.164Z,89.37
2023-04-23T10:52:26.016Z,88.51
2023-04-23T10:53:24.929Z,89.28
2023-04-23T10:54:24.973Z,88.61
2023-04-23T10:55:25.040Z,87.84
2023-04-23T10:56:25.037Z,87.94
2023-04-23T10:57:25.063Z,87.41
2023-04-23T10:58:25.112Z,87.41
2023-04-23T10:59:25.152Z,87.12
2023-04-23T11:00:25.171Z,87.02
2023-04-23T11:01:25.259Z,86.83
2023-04-23T11:02:25.382Z,86.25
2023-04-23T11:03:25.470Z,85.58
2023-04-23T11:04:25.551Z,85.15
2023-04-23T11:05:25.327Z,85.15
2023-04-23T11:06:25.372Z,84.19
2023-04-23T11:07:25.415Z,83.71
2023-04-23T11:08:25.444Z,83.86
2023-04-23T11:09:25.476Z,84.77
2023-04-23T11:10:25.518Z,84.25
2023-04-23T11:11:25.545Z,83.95
2023-04-23T11:12:25.582Z,84.38
2023-04-23T11:13:25.612Z,83.19
2023-04-23T11:14:25.648Z,82.62
2023-04-23T11:15:25.693Z,82.81
2023-04-23T11:16:25.835Z,82.52
2023-04-23T11:17:25.819Z,81.85
2023-04-23T11:18:25.771Z,82.23
2023-04-23T11:19:25.808Z,82.32
2023-04-23T11:20:25.840Z,82.90
2023-04-23T11:21:25.883Z,82.90
2023-04-23T11:22:25.916Z,83.00
2023-04-23T11:23:25.949Z,83.38
2023-04-23T11:24:25.985Z,82.81
2023-04-23T11:25:26.060Z,82.90
2023-04-23T11:26:26.054Z,82.90
2023-04-23T11:27:26.101Z,82.90
2023-04-23T11:28:26.119Z,82.90
2023-04-23T11:29:26.183Z,82.94
2023-04-23T11:30:26.192Z,82.85
2023-04-23T11:31:26.249Z,83.04
2023-04-23T11:32:26.444Z,83.61
2023-04-23T11:33:26.392Z,83.81
2023-04-23T11:34:26.382Z,83.14
2023-04-23T11:35:26.372Z,82.94
2023-04-23T11:36:26.397Z,82.94
2023-04-23T11:37:26.424Z,82.37
2023-04-23T11:38:26.465Z,82.65
2023-04-23T11:39:26.494Z,83.19
2023-04-23T11:40:26.605Z,83.23
2023-04-23T11:41:26.566Z,83.81
2023-04-23T11:42:26.599Z,83.67
2023-04-23T11:43:26.631Z,83.91
2023-04-23T11:44:26.672Z,83.71
2023-04-23T11:45:26.718Z,83.42
2023-04-23T11:46:26.778Z,83.42
2023-04-23T11:47:26.775Z,83.71
2023-04-23T11:48:26.803Z,83.71
2023-04-23T11:49:26.838Z,83.71
2023-04-23T11:50:26.873Z,83.33
2023-04-23T11:51:26.960Z,83.65
2023-04-23T11:52:26.932Z,82.70
2023-04-23T11:53:26.976Z,82.41
2023-04-23T11:54:27.012Z,81.74
2023-04-23T11:55:27.040Z,82.41
2023-04-23T11:56:27.071Z,82.31
2023-04-23T11:57:27.102Z,82.70
2023-04-23T11:58:27.140Z,80.82
2023-04-23T11:59:27.175Z,81.20
2023-04-23T12:00:27.212Z,81.68
2023-04-23T12:01:27.261Z,81.01
2023-04-23T12:02:27.363Z,79.90
2023-04-23T12:03:27.462Z,79.42
2023-04-23T12:04:27.449Z,78.08
2023-04-23T12:05:27.387Z,77.88
2023-04-23T12:06:27.429Z,77.50
2023-04-23T12:07:27.451Z,76.86
2023-04-23T12:08:27.497Z,75.20
2023-04-23T12:09:27.530Z,76.39
2023-04-23T12:10:27.558Z,76.19
2023-04-23T12:11:27.598Z,76.19
2023-04-23T12:12:27.623Z,76.86
2023-04-23T12:13:27.659Z,76.81
2023-04-23T12:14:27.712Z,75.27
2023-04-23T12:15:27.737Z,75.07
2023-04-23T12:16:27.865Z,74.50
2023-04-23T12:17:27.833Z,74.21
2023-04-23T12:18:27.828Z,73.73
2023-04-23T12:19:27.866Z,74.02
2023-04-23T12:20:27.897Z,74.21
2023-04-23T12:21:27.932Z,73.35
2023-04-23T12:22:27.996Z,72.67
2023-04-23T12:23:28.037Z,72.48
2023-04-23T12:24:28.048Z,72.48
2023-04-23T12:25:28.083Z,72.00
2023-04-23T12:26:28.121Z,72.19
2023-04-23T12:27:28.143Z,72.48
2023-04-23T12:28:28.172Z,71.91
2023-04-23T12:29:28.231Z,70.75
2023-04-23T12:30:28.237Z,71.00
2023-04-23T12:31:28.311Z,71.10
2023-04-23T12:32:28.371Z,71.19
2023-04-23T12:33:28.363Z,72.25
2023-04-23T12:34:28.441Z,72.83
2023-04-23T12:35:28.430Z,71.96
2023-04-23T12:36:28.477Z,71.42
2023-04-23T12:37:28.529Z,70.84
2023-04-23T12:38:28.541Z,70.56
2023-04-23T12:39:28.581Z,70.75
2023-04-23T12:40:28.602Z,70.65
2023-04-23T12:41:28.658Z,70.75
2023-04-23T12:42:28.681Z,70.94
2023-04-23T12:43:28.722Z,69.79
2023-04-23T12:44:28.745Z,70.07
2023-04-23T12:45:28.763Z,69.69
2023-04-23T12:46:28.834Z,69.69
2023-04-23T12:47:29.000Z,70.17
2023-04-23T12:48:28.891Z,68.70
2023-04-23T12:49:28.933Z,68.98
2023-04-23T12:50:28.965Z,70.14
2023-04-23T12:51:29.012Z,70.33
2023-04-23T12:52:29.070Z,69.98
2023-04-23T12:53:29.077Z,69.79
2023-04-23T12:54:29.113Z,70.17